createdAt,value
2018-11-28T00:00:21.160Z,1015.24
2018-11-28T00:01:21.123Z,1015.23
2018-11-28T00:02:21.123Z,1015.18
2018-11-28T00:03:21.125Z,1015.15
2018-11-28T00:04:21.103Z,1015.13
2018-11-28T00:05:21.107Z,1015.21
2018-11-28T00:06:21.066Z,1015.22
2018-11-28T00:07:21.089Z,1015.15
2018-11-28T00:08:21.076Z,1015.13
2018-11-28T00:09:21.035Z,1015.12
2018-11-28T00:10:21.038Z,1015.06
2018-11-28T00:11:21.058Z,1015.10
2018-11-28T00:12:21.053Z,1015.07
2018-11-28T00:13:21.035Z,1015.07
2018-11-28T00:14:20.985Z,1015.03
2018-11-28T00:15:21.086Z,1015.02
2018-11-28T00:16:20.961Z,1015.03
2018-11-28T00:17:20.955Z,1015.04
2018-11-28T00:18:20.988Z,1015.01
2018-11-28T00:19:20.949Z,1014.99
2018-11-28T00:20:21.028Z,1015.03
2018-11-28T00:21:20.905Z,1015.01
2018-11-28T00:22:20.897Z,1014.96
2018-11-28T00:23:20.885Z,1014.94
2018-11-28T00:24:20.909Z,1014.99
2018-11-28T00:25:20.862Z,1014.97
2018-11-28T00:26:20.891Z,1014.96
2018-11-28T00:27:20.846Z,1014.94
2018-11-28T00:28:20.829Z,1014.91
2018-11-28T00:29:20.822Z,1014.92
2018-11-28T00:30:20.833Z,1014.89
2018-11-28T00:31:20.803Z,1014.86
2018-11-28T00:32:20.870Z,1014.80
2018-11-28T00:33:20.784Z,1014.76
2018-11-28T00:34:20.766Z,1014.77
2018-11-28T00:35:20.793Z,1014.75
2018-11-28T00:36:20.744Z,1014.75
2018-11-28T00:37:20.736Z,1014.74
2018-11-28T00:38:20.769Z,1014.70
2018-11-28T00:39:20.716Z,1014.71
2018-11-28T00:40:20.714Z,1014.69
2018-11-28T00:41:20.722Z,1014.65
2018-11-28T00:42:20.683Z,1014.67
2018-11-28T00:43:20.671Z,1014.62
2018-11-28T00:44:20.665Z,1014.65
2018-11-28T00:45:20.695Z,1014.66
2018-11-28T00:46:20.665Z,1014.64
2018-11-28T00:47:20.644Z,1014.66
2018-11-28T00:48:20.662Z,1014.68
2018-11-28T00:49:20.621Z,1014.69
2018-11-28T00:50:20.597Z,1014.69
2018-11-28T00:51:20.618Z,1014.63
2018-11-28T00:52:20.576Z,1014.64
2018-11-28T00:53:20.598Z,1014.60
2018-11-28T00:54:20.559Z,1014.66
2018-11-28T00:55:20.542Z,1014.60
2018-11-28T00:56:20.569Z,1014.64
2018-11-28T00:57:20.520Z,1014.62
2018-11-28T00:58:20.514Z,1014.67
2018-11-28T00:59:20.528Z,1014.66
2018-11-28T01:00:20.505Z,1014.67
2018-11-28T01:01:20.537Z,1014.66
2018-11-28T01:02:20.470Z,1014.69
2018-11-28T01:03:20.471Z,1014.70
2018-11-28T01:04:20.463Z,1014.72
2018-11-28T01:05:20.448Z,1014.72
2018-11-28T01:06:20.474Z,1014.68
2018-11-28T01:07:20.415Z,1014.69
2018-11-28T01:08:20.405Z,1014.66
2018-11-28T01:09:20.451Z,1014.67
2018-11-28T01:10:20.385Z,1014.68
2018-11-28T01:11:20.378Z,1014.68
2018-11-28T01:12:20.412Z,1014.67
2018-11-28T01:13:20.355Z,1014.57
2018-11-28T01:14:20.337Z,1014.59
2018-11-28T01:15:20.329Z,1014.59
2018-11-28T01:16:20.372Z,1014.51
2018-11-28T01:17:20.318Z,1014.50
2018-11-28T01:18:20.347Z,1014.50
2018-11-28T01:19:20.301Z,1014.49
2018-11-28T01:20:20.276Z,1014.50
2018-11-28T01:21:20.262Z,1014.51
2018-11-28T01:22:20.268Z,1014.49
2018-11-28T01:23:20.267Z,1014.46
2018-11-28T01:24:20.285Z,1014.48
2018-11-28T01:25:20.235Z,1014.46
2018-11-28T01:26:20.209Z,1014.48
2018-11-28T01:27:20.199Z,1014.54
2018-11-28T01:28:20.227Z,1014.53
2018-11-28T01:29:20.199Z,1014.55
2018-11-28T01:30:20.198Z,1014.56
2018-11-28T01:31:20.192Z,1014.52
2018-11-28T01:32:20.154Z,1014.52
2018-11-28T01:33:20.173Z,1014.55
2018-11-28T01:34:20.177Z,1014.50
2018-11-28T01:35:20.135Z,1014.51
2018-11-28T01:36:20.105Z,1014.48
2018-11-28T01:37:20.108Z,1014.49
2018-11-28T01:38:20.096Z,1014.48
2018-11-28T01:39:20.121Z,1014.50
2018-11-28T01:40:20.090Z,1014.54
2018-11-28T01:41:20.055Z,1014.53
2018-11-28T01:42:20.103Z,1014.59
2018-11-28T01:43:20.033Z,1014.63
2018-11-28T01:44:20.039Z,1014.59
2018-11-28T01:45:20.045Z,1014.63
2018-11-28T01:46:20.016Z,1014.60
2018-11-28T01:47:19.998Z,1014.64
2018-11-28T01:48:20.024Z,1014.66
2018-11-28T01:49:20.017Z,1014.65
2018-11-28T01:50:19.984Z,1014.68
2018-11-28T01:51:19.952Z,1014.68
2018-11-28T01:52:19.948Z,1014.67
2018-11-28T01:53:19.935Z,1014.64
2018-11-28T01:54:19.934Z,1014.63
2018-11-28T01:55:20.028Z,1014.63
2018-11-28T01:56:19.902Z,1014.60
2018-11-28T01:57:19.883Z,1014.61
2018-11-28T01:58:19.875Z,1014.57
2018-11-28T01:59:19.906Z,1014.53
2018-11-28T02:00:19.854Z,1014.60
2018-11-28T02:01:19.881Z,1014.58
2018-11-28T02:02:19.882Z,1014.66
2018-11-28T02:03:19.847Z,1014.61
2018-11-28T02:04:19.831Z,1014.64
2018-11-28T02:05:19.808Z,1014.64
2018-11-28T02:06:20.142Z,1014.59
2018-11-28T02:07:19.784Z,1014.61
2018-11-28T02:08:19.778Z,1014.65
2018-11-28T02:09:19.764Z,1014.64
2018-11-28T02:10:19.807Z,1014.62
2018-11-28T02:11:19.783Z,1014.63
2018-11-28T02:12:19.734Z,1014.62
2018-11-28T02:13:19.721Z,1014.61
2018-11-28T02:14:19.713Z,1014.57
2018-11-28T02:15:19.697Z,1014.54
2018-11-28T02:16:19.707Z,1014.55
2018-11-28T02:17:19.718Z,1014.51
2018-11-28T02:18:19.674Z,1014.48
2018-11-28T02:19:19.694Z,1014.44
2018-11-28T02:20:19.647Z,1014.46
2018-11-28T02:21:19.642Z,1014.46
2018-11-28T02:22:19.651Z,1014.48
2018-11-28T02:23:19.621Z,1014.43
2018-11-28T02:24:19.610Z,1014.43
2018-11-28T02:25:19.652Z,1014.46
2018-11-28T02:26:19.591Z,1014.47
2018-11-28T02:27:19.572Z,1014.43
2018-11-28T02:28:19.605Z,1014.40
2018-11-28T02:29:19.648Z,1014.32
2018-11-28T02:30:19.565Z,1014.28
2018-11-28T02:31:19.540Z,1014.29
2018-11-28T02:32:19.567Z,1014.34
2018-11-28T02:33:19.549Z,1014.33
2018-11-28T02:34:19.521Z,1014.31
2018-11-28T02:35:19.581Z,1014.29
2018-11-28T02:36:19.508Z,1014.25
2018-11-28T02:37:19.467Z,1014.28
2018-11-28T02:38:19.467Z,1014.27
2018-11-28T02:39:19.484Z,1014.29
2018-11-28T02:40:19.517Z,1014.32
2018-11-28T02:41:19.430Z,1014.35
2018-11-28T02:42:19.423Z,1014.37
2018-11-28T02:43:19.454Z,1014.33
2018-11-28T02:44:19.394Z,1014.32
2018-11-28T02:45:19.414Z,1014.31
2018-11-28T02:46:19.410Z,1014.30
2018-11-28T02:47:19.372Z,1014.28
2018-11-28T02:48:19.366Z,1014.28
2018-11-28T02:49:19.354Z,1014.32
2018-11-28T02:50:19.359Z,1014.33
2018-11-28T02:51:19.325Z,1014.31
2018-11-28T02:52:19.343Z,1014.33
2018-11-28T02:53:19.325Z,1014.38
2018-11-28T02:54:19.296Z,1014.42
2018-11-28T02:55:19.367Z,1014.42
2018-11-28T02:56:19.268Z,1014.40
2018-11-28T02:57:19.264Z,1014.37
2018-11-28T02:58:19.247Z,1014.41
2018-11-28T02:59:19.245Z,1014.35
2018-11-28T03:00:19.312Z,1014.26
2018-11-28T03:01:19.220Z,1014.28
2018-11-28T03:02:19.206Z,1014.23
2018-11-28T03:03:19.197Z,1014.20
2018-11-28T03:04:19.235Z,1014.14
2018-11-28T03:05:19.198Z,1014.19
2018-11-28T03:06:19.287Z,1014.18
2018-11-28T03:07:19.155Z,1014.23
2018-11-28T03:08:19.152Z,1014.20
2018-11-28T03:09:19.133Z,1014.19
2018-11-28T03:10:19.123Z,1014.18
2018-11-28T03:11:19.162Z,1014.16
2018-11-28T03:12:19.128Z,1014.22
2018-11-28T03:13:19.124Z,1014.20
2018-11-28T03:14:19.085Z,1014.19
2018-11-28T03:15:19.071Z,1014.18
2018-11-28T03:16:19.138Z,1014.18
2018-11-28T03:17:19.092Z,1014.18
2018-11-28T03:18:19.043Z,1014.14
2018-11-28T03:19:19.057Z,1014.15
2018-11-28T03:20:19.029Z,1014.11
2018-11-28T03:21:19.014Z,1014.11
2018-11-28T03:22:19.041Z,1014.16
2018-11-28T03:23:19.009Z,1014.16
2018-11-28T03:24:18.982Z,1014.13
2018-11-28T03:25:19.072Z,1014.18
2018-11-28T03:26:18.957Z,1014.13
2018-11-28T03:27:18.954Z,1014.10
2018-11-28T03:28:18.969Z,1014.07
2018-11-28T03:29:18.922Z,1014.10
2018-11-28T03:30:18.927Z,1014.14
2018-11-28T03:31:18.904Z,1014.09
2018-11-28T03:32:18.980Z,1014.11
2018-11-28T03:33:18.945Z,1014.10
2018-11-28T03:34:18.885Z,1014.11
2018-11-28T03:35:18.863Z,1014.13
2018-11-28T03:36:18.883Z,1014.21
2018-11-28T03:37:18.855Z,1014.18
2018-11-28T03:38:18.863Z,1014.20
2018-11-28T03:39:18.825Z,1014.18
2018-11-28T03:40:18.854Z,1014.21
2018-11-28T03:41:18.820Z,1014.18
2018-11-28T03:42:18.789Z,1014.16
2018-11-28T03:43:18.803Z,1014.15
2018-11-28T03:44:18.801Z,1014.15
2018-11-28T03:45:18.761Z,1014.13
2018-11-28T03:46:18.756Z,1014.18
2018-11-28T03:47:18.735Z,1014.15
2018-11-28T03:48:18.771Z,1014.16
2018-11-28T03:49:18.753Z,1014.13
2018-11-28T03:50:18.711Z,1014.13
2018-11-28T03:51:18.693Z,1014.17
2018-11-28T03:52:18.683Z,1014.15
2018-11-28T03:53:18.682Z,1014.14
2018-11-28T03:54:18.705Z,1014.13
2018-11-28T03:55:18.681Z,1014.14
2018-11-28T03:56:18.644Z,1014.12
2018-11-28T03:57:18.644Z,1014.06
2018-11-28T03:58:18.628Z,1014.13
2018-11-28T03:59:18.614Z,1014.09
2018-11-28T04:00:18.710Z,1014.07
2018-11-28T04:01:18.612Z,1014.05
2018-11-28T04:02:18.581Z,1014.07
2018-11-28T04:03:18.573Z,1014.07
2018-11-28T04:04:18.605Z,1014.10
2018-11-28T04:05:18.604Z,1014.05
2018-11-28T04:06:18.548Z,1014.05
2018-11-28T04:07:18.632Z,1014.03
2018-11-28T04:08:18.519Z,1014.00
2018-11-28T04:09:18.523Z,1014.02
2018-11-28T04:10:18.648Z,1013.96
2018-11-28T04:11:18.498Z,1013.99
2018-11-28T04:12:18.511Z,1013.97
2018-11-28T04:13:18.461Z,1013.98
2018-11-28T04:14:18.451Z,1014.03
2018-11-28T04:15:18.482Z,1014.06
2018-11-28T04:16:18.470Z,1014.04
2018-11-28T04:17:18.482Z,1014.06
2018-11-28T04:18:18.417Z,1014.06
2018-11-28T04:19:18.425Z,1014.09
2018-11-28T04:20:18.411Z,1014.05
2018-11-28T04:21:18.401Z,1014.03
2018-11-28T04:22:18.368Z,1014.02
2018-11-28T04:23:18.362Z,1014.01
2018-11-28T04:24:18.348Z,1014.07
2018-11-28T04:25:18.338Z,1014.08
2018-11-28T04:26:18.435Z,1014.05
2018-11-28T04:27:18.315Z,1014.10
2018-11-28T04:28:18.315Z,1014.17
2018-11-28T04:29:18.303Z,1014.15
2018-11-28T04:30:18.317Z,1014.15
2018-11-28T04:31:18.306Z,1014.13
2018-11-28T04:32:18.268Z,1014.13
2018-11-28T04:33:18.272Z,1014.12
2018-11-28T04:34:18.246Z,1014.13
2018-11-28T04:35:18.276Z,1014.13
2018-11-28T04:36:18.263Z,1014.13
2018-11-28T04:37:18.227Z,1014.16
2018-11-28T04:38:18.200Z,1014.12
2018-11-28T04:39:18.195Z,1014.14
2018-11-28T04:40:18.188Z,1014.12
2018-11-28T04:41:18.164Z,1014.17
2018-11-28T04:42:18.193Z,1014.13
2018-11-28T04:43:18.203Z,1014.15
2018-11-28T04:44:18.137Z,1014.18
2018-11-28T04:45:18.126Z,1014.17
2018-11-28T04:46:18.154Z,1014.16
2018-11-28T04:47:18.110Z,1014.17
2018-11-28T04:48:18.125Z,1014.11
2018-11-28T04:49:18.121Z,1014.15
2018-11-28T04:50:18.077Z,1014.12
2018-11-28T04:51:18.067Z,1014.08
2018-11-28T04:52:18.092Z,1014.14
2018-11-28T04:53:18.089Z,1014.11
2018-11-28T04:54:18.043Z,1014.13
2018-11-28T04:55:18.035Z,1014.17
2018-11-28T04:56:18.014Z,1014.16
2018-11-28T04:57:18.070Z,1014.19
2018-11-28T04:58:18.017Z,1014.14
2018-11-28T04:59:17.976Z,1014.20
2018-11-28T05:00:17.979Z,1014.19
2018-11-28T05:01:17.971Z,1014.18
2018-11-28T05:02:17.945Z,1014.18
2018-11-28T05:03:17.960Z,1014.18
2018-11-28T05:04:17.945Z,1014.17
2018-11-28T05:05:17.928Z,1014.16
2018-11-28T05:06:17.917Z,1014.21
2018-11-28T05:07:17.895Z,1014.12
2018-11-28T05:08:17.912Z,1014.17
2018-11-28T05:09:17.877Z,1014.15
2018-11-28T05:10:17.903Z,1014.13
2018-11-28T05:11:17.853Z,1014.14
2018-11-28T05:12:17.861Z,1014.16
2018-11-28T05:13:17.926Z,1014.06
2018-11-28T05:14:17.897Z,1014.10
2018-11-28T05:15:17.805Z,1014.13
2018-11-28T05:16:17.797Z,1014.06
2018-11-28T05:17:17.867Z,1014.10
2018-11-28T05:18:17.808Z,1014.13
2018-11-28T05:19:17.769Z,1014.20
2018-11-28T05:20:17.826Z,1014.13
2018-11-28T05:21:17.739Z,1014.13
2018-11-28T05:22:17.746Z,1014.11
2018-11-28T05:23:17.760Z,1014.12
2018-11-28T05:24:17.711Z,1014.08
2018-11-28T05:25:17.702Z,1014.10
2018-11-28T05:26:17.797Z,1014.08
2018-11-28T05:27:17.681Z,1014.11
2018-11-28T05:28:17.681Z,1014.12
2018-11-28T05:29:17.734Z,1014.11
2018-11-28T05:30:17.669Z,1014.07
2018-11-28T05:31:17.633Z,1014.09
2018-11-28T05:32:17.628Z,1014.06
2018-11-28T05:33:17.759Z,1014.06
2018-11-28T05:34:17.635Z,1014.06
2018-11-28T05:35:17.629Z,1014.06
2018-11-28T05:36:17.610Z,1014.04
2018-11-28T05:37:17.569Z,1014.07
2018-11-28T05:38:17.565Z,1014.04
2018-11-28T05:39:17.583Z,1014.06
2018-11-28T05:40:17.541Z,1014.09
2018-11-28T05:41:17.556Z,1014.04
2018-11-28T05:42:17.595Z,1014.05
2018-11-28T05:43:17.506Z,1014.02
2018-11-28T05:44:17.500Z,1014.04
2018-11-28T05:45:17.560Z,1014.03
2018-11-28T05:46:17.517Z,1014.03
2018-11-28T05:47:17.465Z,1013.97
2018-11-28T05:48:17.454Z,1014.02
2018-11-28T05:49:17.522Z,1014.03
2018-11-28T05:50:17.432Z,1013.98
2018-11-28T05:51:17.454Z,1014.03
2018-11-28T05:52:17.413Z,1014.01
2018-11-28T05:53:17.424Z,1014.07
2018-11-28T05:54:17.434Z,1014.03
2018-11-28T05:55:17.383Z,1014.07
2018-11-28T05:56:17.368Z,1014.09
2018-11-28T05:57:17.404Z,1014.07
2018-11-28T05:58:17.348Z,1014.14
2018-11-28T05:59:17.367Z,1014.12
2018-11-28T06:00:17.329Z,1014.09
2018-11-28T06:01:17.377Z,1014.07
2018-11-28T06:02:17.309Z,1014.16
2018-11-28T06:03:17.323Z,1014.13
2018-11-28T06:04:17.283Z,1014.16
2018-11-28T06:05:17.289Z,1014.19
2018-11-28T06:06:17.328Z,1014.17
2018-11-28T06:07:17.295Z,1014.13
2018-11-28T06:08:17.269Z,1014.12
2018-11-28T06:09:17.237Z,1014.20
2018-11-28T06:10:17.230Z,1014.17
2018-11-28T06:11:17.217Z,1014.15
2018-11-28T06:12:17.215Z,1014.12
2018-11-28T06:13:17.219Z,1014.14
2018-11-28T06:14:17.188Z,1014.13
2018-11-28T06:15:17.276Z,1014.16
2018-11-28T06:16:17.179Z,1014.17
2018-11-28T06:17:17.192Z,1014.13
2018-11-28T06:18:17.185Z,1014.15
2018-11-28T06:19:17.138Z,1014.08
2018-11-28T06:20:17.112Z,1014.08
2018-11-28T06:21:17.111Z,1014.11
2018-11-28T06:22:17.091Z,1014.09
2018-11-28T06:23:17.089Z,1014.01
2018-11-28T06:24:17.107Z,1014.05
2018-11-28T06:25:17.144Z,1014.09
2018-11-28T06:26:17.050Z,1014.08
2018-11-28T06:27:17.054Z,1014.11
2018-11-28T06:28:17.028Z,1014.03
2018-11-28T06:29:17.069Z,1014.06
2018-11-28T06:30:17.086Z,1014.08
2018-11-28T06:31:16.996Z,1014.08
2018-11-28T06:32:16.996Z,1014.14
2018-11-28T06:33:17.164Z,1014.04
2018-11-28T06:34:16.983Z,1014.10
2018-11-28T06:35:16.977Z,1014.04
2018-11-28T06:36:16.954Z,1014.01
2018-11-28T06:37:16.989Z,1014.02
2018-11-28T06:38:16.927Z,1013.92
2018-11-28T06:39:16.927Z,1013.96
2018-11-28T06:40:16.934Z,1013.95
2018-11-28T06:41:16.909Z,1013.96
2018-11-28T06:42:16.883Z,1014.00
2018-11-28T06:43:16.873Z,1013.98
2018-11-28T06:44:16.964Z,1013.96
2018-11-28T06:45:16.888Z,1013.97
2018-11-28T06:46:16.893Z,1013.96
2018-11-28T06:47:16.833Z,1014.00
2018-11-28T06:48:16.840Z,1013.95
2018-11-28T06:49:16.936Z,1013.97
2018-11-28T06:50:16.816Z,1013.97
2018-11-28T06:51:16.814Z,1014.02
2018-11-28T06:52:16.794Z,1014.03
2018-11-28T06:53:16.841Z,1014.04
2018-11-28T06:54:16.765Z,1014.10
2018-11-28T06:55:16.747Z,1014.04
2018-11-28T06:56:16.769Z,1014.07
2018-11-28T06:57:16.736Z,1014.01
2018-11-28T06:58:16.821Z,1014.10
2018-11-28T06:59:16.704Z,1014.07
2018-11-28T07:00:16.694Z,1014.07
2018-11-28T07:01:16.726Z,1014.13
2018-11-28T07:02:16.677Z,1014.13
2018-11-28T07:03:16.664Z,1014.20
2018-11-28T07:04:16.704Z,1014.17
2018-11-28T07:05:16.647Z,1014.20
2018-11-28T07:06:16.629Z,1014.18
2018-11-28T07:07:16.660Z,1014.18
2018-11-28T07:08:16.615Z,1014.25
2018-11-28T07:09:16.601Z,1014.24
2018-11-28T07:10:16.596Z,1014.28
2018-11-28T07:11:16.621Z,1014.25
2018-11-28T07:12:16.586Z,1014.25
2018-11-28T07:13:16.582Z,1014.32
2018-11-28T07:14:16.548Z,1014.29
2018-11-28T07:15:16.569Z,1014.29
2018-11-28T07:16:16.521Z,1014.31
2018-11-28T07:17:17.840Z,1014.30
2018-11-28T07:18:16.570Z,1014.29
2018-11-28T07:19:16.505Z,1014.34
2018-11-28T07:20:16.496Z,1014.42
2018-11-28T07:21:16.487Z,1014.43
2018-11-28T07:22:16.478Z,1014.44
2018-11-28T07:23:16.486Z,1014.46
2018-11-28T07:24:16.521Z,1014.48
2018-11-28T07:25:16.460Z,1014.49
2018-11-28T07:26:16.467Z,1014.48
2018-11-28T07:27:16.406Z,1014.50
2018-11-28T07:28:16.395Z,1014.53
2018-11-28T07:29:16.517Z,1014.54
2018-11-28T07:30:16.382Z,1014.51
2018-11-28T07:31:16.422Z,1014.55
2018-11-28T07:32:16.372Z,1014.58
2018-11-28T07:33:16.357Z,1014.52
2018-11-28T07:34:16.437Z,1014.58
2018-11-28T07:35:16.393Z,1014.54
2018-11-28T07:36:16.351Z,1014.57
2018-11-28T07:37:16.315Z,1014.59
2018-11-28T07:38:16.311Z,1014.62
2018-11-28T07:39:16.444Z,1014.64
2018-11-28T07:40:16.281Z,1014.66
2018-11-28T07:41:16.270Z,1014.63
2018-11-28T07:42:16.374Z,1014.67
2018-11-28T07:43:16.246Z,1014.65
2018-11-28T07:44:16.234Z,1014.63
2018-11-28T07:45:16.255Z,1014.66
2018-11-28T07:46:16.223Z,1014.69
2018-11-28T07:47:16.288Z,1014.65
2018-11-28T07:48:16.199Z,1014.70
2018-11-28T07:49:16.179Z,1014.66
2018-11-28T07:50:16.200Z,1014.68
2018-11-28T07:51:16.233Z,1014.69
2018-11-28T07:52:16.153Z,1014.71
2018-11-28T07:53:16.138Z,1014.74
2018-11-28T07:54:16.131Z,1014.73
2018-11-28T07:55:16.180Z,1014.82
2018-11-28T07:56:16.116Z,1014.79
2018-11-28T07:57:16.114Z,1014.79
2018-11-28T07:58:16.091Z,1014.78
2018-11-28T07:59:16.088Z,1014.78
2018-11-28T08:00:16.071Z,1014.77
2018-11-28T08:01:16.169Z,1014.78
2018-11-28T08:02:16.067Z,1014.79
2018-11-28T08:03:16.032Z,1014.80
2018-11-28T08:04:16.024Z,1014.75
2018-11-28T08:05:16.079Z,1014.80
2018-11-28T08:06:16.011Z,1014.76
2018-11-28T08:07:16.025Z,1014.73
2018-11-28T08:08:16.054Z,1014.77
2018-11-28T08:09:15.974Z,1014.75
2018-11-28T08:10:15.969Z,1014.76
2018-11-28T08:11:15.986Z,1014.77
2018-11-28T08:12:15.946Z,1014.85
2018-11-28T08:13:15.931Z,1014.78
2018-11-28T08:14:15.998Z,1014.81
2018-11-28T08:15:15.911Z,1014.80
2018-11-28T08:16:15.908Z,1014.83
2018-11-28T08:17:15.913Z,1014.84
2018-11-28T08:18:15.886Z,1014.78
2018-11-28T08:19:15.873Z,1014.85
2018-11-28T08:20:15.890Z,1014.81
2018-11-28T08:21:15.852Z,1014.84
2018-11-28T08:22:15.871Z,1014.88
2018-11-28T08:23:15.844Z,1014.84
2018-11-28T08:24:15.902Z,1014.87
2018-11-28T08:25:15.808Z,1014.80
2018-11-28T08:26:15.796Z,1014.85
2018-11-28T08:27:16.029Z,1014.84
2018-11-28T08:28:15.796Z,1014.81
2018-11-28T08:29:15.844Z,1014.83
2018-11-28T08:30:15.779Z,1014.87
2018-11-28T08:31:15.748Z,1014.87
2018-11-28T08:32:15.758Z,1014.83
2018-11-28T08:33:15.744Z,1014.84
2018-11-28T08:34:15.710Z,1014.88
2018-11-28T08:35:15.915Z,1014.87
2018-11-28T08:36:15.692Z,1014.85
2018-11-28T08:37:15.676Z,1014.88
2018-11-28T08:38:15.690Z,1014.82
2018-11-28T08:39:15.690Z,1014.85
2018-11-28T08:40:15.645Z,1014.82
2018-11-28T08:41:15.632Z,1014.87
2018-11-28T08:42:15.692Z,1014.76
2018-11-28T08:43:15.637Z,1014.77
2018-11-28T08:44:15.615Z,1014.79
2018-11-28T08:45:15.605Z,1014.77
2018-11-28T08:46:15.579Z,1014.77
2018-11-28T08:47:15.568Z,1014.71
2018-11-28T08:48:15.602Z,1014.76
2018-11-28T08:49:15.617Z,1014.69
2018-11-28T08:50:15.545Z,1014.72
2018-11-28T08:51:15.531Z,1014.76
2018-11-28T08:52:15.527Z,1014.64
2018-11-28T08:53:15.630Z,1014.76
2018-11-28T08:54:15.499Z,1014.72
2018-11-28T08:55:15.500Z,1014.70
2018-11-28T08:56:15.475Z,1014.70
2018-11-28T08:57:15.506Z,1014.73
2018-11-28T08:58:15.486Z,1014.72
2018-11-28T08:59:15.456Z,1014.72
2018-11-28T09:00:15.440Z,1014.74
2018-11-28T09:01:15.431Z,1014.75
2018-11-28T09:02:16.090Z,1014.76
2018-11-28T09:03:15.549Z,1014.74
2018-11-28T09:04:15.415Z,1014.75
2018-11-28T09:05:15.393Z,1014.80
2018-11-28T09:06:15.403Z,1014.80
2018-11-28T09:07:15.441Z,1014.85
2018-11-28T09:08:15.353Z,1014.84
2018-11-28T09:09:15.417Z,1014.79
2018-11-28T09:10:15.384Z,1014.83
2018-11-28T09:11:15.325Z,1014.86
2018-11-28T09:12:15.443Z,1014.78
2018-11-28T09:13:15.376Z,1014.78
2018-11-28T09:14:15.284Z,1014.79
2018-11-28T09:15:15.297Z,1014.83
2018-11-28T09:16:15.278Z,1014.83
2018-11-28T09:17:15.333Z,1014.80
2018-11-28T09:18:15.259Z,1014.78
2018-11-28T09:19:15.296Z,1014.81
2018-11-28T09:20:15.252Z,1014.78
2018-11-28T09:21:15.211Z,1014.74
2018-11-28T09:22:15.252Z,1014.74
2018-11-28T09:23:15.196Z,1014.75
2018-11-28T09:24:15.197Z,1014.83
2018-11-28T09:25:15.227Z,1014.75
2018-11-28T09:26:15.150Z,1014.83
2018-11-28T09:27:15.197Z,1014.78
2018-11-28T09:28:15.132Z,1014.82
2018-11-28T09:29:15.169Z,1014.80
2018-11-28T09:30:15.136Z,1014.83
2018-11-28T09:31:15.106Z,1014.78
2018-11-28T09:32:15.093Z,1014.79
2018-11-28T09:33:15.082Z,1014.81
2018-11-28T09:34:15.085Z,1014.80
2018-11-28T09:35:15.090Z,1014.78
2018-11-28T09:36:15.046Z,1014.77
2018-11-28T09:37:15.049Z,1014.79
2018-11-28T09:38:15.028Z,1014.71
2018-11-28T09:39:15.074Z,1014.77
2018-11-28T09:40:15.021Z,1014.76
2018-11-28T09:41:15.055Z,1014.75
2018-11-28T09:42:15.002Z,1014.82
2018-11-28T09:43:15.164Z,1014.82
2018-11-28T09:44:15.066Z,1014.76
2018-11-28T09:45:14.960Z,1014.76
2018-11-28T09:46:14.973Z,1014.79
2018-11-28T09:47:14.940Z,1014.82
2018-11-28T09:48:14.962Z,1014.84
2018-11-28T09:49:14.918Z,1014.81
2018-11-28T09:50:14.905Z,1014.83
2018-11-28T09:51:14.931Z,1014.81
2018-11-28T09:52:14.880Z,1014.79
2018-11-28T09:53:14.869Z,1014.77
2018-11-28T09:54:14.919Z,1014.80
2018-11-28T09:55:14.852Z,1014.75
2018-11-28T09:56:14.938Z,1014.77
2018-11-28T09:57:14.822Z,1014.78
2018-11-28T09:58:14.856Z,1014.80
2018-11-28T09:59:14.808Z,1014.80
2018-11-28T10:00:14.805Z,1014.80
2018-11-28T10:01:14.817Z,1014.82
2018-11-28T10:02:14.801Z,1014.86
2018-11-28T10:03:14.779Z,1014.83
2018-11-28T10:04:14.753Z,1014.83
2018-11-28T10:05:14.740Z,1014.73
2018-11-28T10:06:14.758Z,1014.82
2018-11-28T10:07:14.750Z,1014.84
2018-11-28T10:08:14.710Z,1014.80
2018-11-28T10:09:14.703Z,1014.83
2018-11-28T10:10:14.776Z,1014.76
2018-11-28T10:11:14.677Z,1014.79
2018-11-28T10:12:14.671Z,1014.73
2018-11-28T10:13:14.691Z,1014.79
2018-11-28T10:14:14.645Z,1014.79
2018-11-28T10:15:14.637Z,1014.71
2018-11-28T10:16:14.636Z,1014.76
2018-11-28T10:17:14.639Z,1014.74
2018-11-28T10:18:14.628Z,1014.72
2018-11-28T10:19:14.600Z,1014.67
2018-11-28T10:20:14.583Z,1014.67
2018-11-28T10:21:14.578Z,1014.69
2018-11-28T10:22:14.678Z,1014.68
2018-11-28T10:23:14.593Z,1014.69
2018-11-28T10:24:14.538Z,1014.70
2018-11-28T10:25:14.567Z,1014.73
2018-11-28T10:26:14.624Z,1014.74
2018-11-28T10:27:14.550Z,1014.69
2018-11-28T10:28:14.496Z,1014.60
2018-11-28T10:29:14.514Z,1014.71
2018-11-28T10:30:14.560Z,1014.65
2018-11-28T10:31:14.469Z,1014.61
2018-11-28T10:32:14.471Z,1014.65
2018-11-28T10:33:14.457Z,1014.57
2018-11-28T10:34:14.588Z,1014.62
2018-11-28T10:35:14.431Z,1014.64
2018-11-28T10:36:14.424Z,1014.60
2018-11-28T10:37:14.401Z,1014.60
2018-11-28T10:38:14.385Z,1014.53
2018-11-28T10:39:14.396Z,1014.44
2018-11-28T10:40:14.398Z,1014.57
2018-11-28T10:41:14.388Z,1014.48
2018-11-28T10:42:14.363Z,1014.46
2018-11-28T10:43:14.415Z,1014.56
2018-11-28T10:44:14.343Z,1014.59
2018-11-28T10:45:14.421Z,1014.54
2018-11-28T10:46:14.330Z,1014.52
2018-11-28T10:47:14.292Z,1014.48
2018-11-28T10:48:14.303Z,1014.52
2018-11-28T10:49:14.270Z,1014.48
2018-11-28T10:50:14.270Z,1014.46
2018-11-28T10:51:14.276Z,1014.47
2018-11-28T10:52:14.259Z,1014.51
2018-11-28T10:53:14.254Z,1014.43
2018-11-28T10:54:14.242Z,1014.41
2018-11-28T10:55:14.236Z,1014.40
2018-11-28T10:56:14.219Z,1014.44
2018-11-28T10:57:14.278Z,1014.35
2018-11-28T10:58:14.175Z,1014.31
2018-11-28T10:59:14.171Z,1014.30
2018-11-28T11:00:14.160Z,1014.38
2018-11-28T11:01:14.193Z,1014.26
2018-11-28T11:02:14.146Z,1014.25
2018-11-28T11:03:14.127Z,1014.27
2018-11-28T11:04:14.138Z,1014.22
2018-11-28T11:05:14.159Z,1014.24
2018-11-28T11:06:14.137Z,1014.25
2018-11-28T11:07:14.084Z,1014.20
2018-11-28T11:08:14.067Z,1014.22
2018-11-28T11:09:14.117Z,1014.16
2018-11-28T11:10:14.062Z,1014.16
2018-11-28T11:11:14.090Z,1014.14
2018-11-28T11:12:14.092Z,1014.17
2018-11-28T11:13:14.015Z,1014.20
2018-11-28T11:14:14.006Z,1014.19
2018-11-28T11:15:13.996Z,1014.20
2018-11-28T11:16:14.010Z,1014.18
2018-11-28T11:17:13.988Z,1014.26
2018-11-28T11:18:13.962Z,1014.21
2018-11-28T11:19:13.987Z,1014.28
2018-11-28T11:20:14.163Z,1014.18
2018-11-28T11:21:13.984Z,1014.27
2018-11-28T11:22:13.923Z,1014.19
2018-11-28T11:23:13.908Z,1014.18
2018-11-28T11:24:13.899Z,1014.19
2018-11-28T11:25:13.921Z,1014.14
2018-11-28T11:26:13.898Z,1014.11
2018-11-28T11:27:13.868Z,1014.19
2018-11-28T11:28:13.890Z,1014.22
2018-11-28T11:29:13.844Z,1014.19
2018-11-28T11:30:13.841Z,1014.28
2018-11-28T11:31:14.001Z,1014.14
2018-11-28T11:32:13.812Z,1014.18
2018-11-28T11:33:13.821Z,1014.20
2018-11-28T11:34:14.760Z,1014.15
2018-11-28T11:35:13.782Z,1014.18
2018-11-28T11:36:13.797Z,1014.14
2018-11-28T11:37:13.876Z,1014.13
2018-11-28T11:38:13.752Z,1014.12
2018-11-28T11:39:13.740Z,1014.09
2018-11-28T11:40:13.723Z,1014.11
2018-11-28T11:41:13.802Z,1014.12
2018-11-28T11:42:13.704Z,1014.11
2018-11-28T11:43:13.720Z,1014.11
2018-11-28T11:44:13.683Z,1014.15
2018-11-28T11:45:13.670Z,1014.10
2018-11-28T11:46:13.660Z,1014.07
2018-11-28T11:47:13.650Z,1014.06
2018-11-28T11:48:13.747Z,1014.09
2018-11-28T11:49:13.628Z,1014.01
2018-11-28T11:50:13.621Z,1014.05
2018-11-28T11:51:13.611Z,1014.04
2018-11-28T11:52:13.599Z,1014.03
2018-11-28T11:53:13.614Z,1014.02
2018-11-28T11:54:13.637Z,1013.98
2018-11-28T11:55:13.567Z,1013.99
2018-11-28T11:56:13.552Z,1013.99
2018-11-28T11:57:13.543Z,1013.98
2018-11-28T11:58:13.577Z,1013.98
2018-11-28T11:59:13.527Z,1014.00
2018-11-28T12:00:13.545Z,1013.94
2018-11-28T12:01:13.501Z,1013.91
2018-11-28T12:02:13.496Z,1013.92
2018-11-28T12:03:13.506Z,1013.91
2018-11-28T12:04:13.468Z,1013.91
2018-11-28T12:05:13.459Z,1013.91